Currently 71°F in Pinon Hills, California, USA
71°F
73°F / 71°F
4 mph SW
0.00"
Monday, June 25, 2018 2:45 AM PDT

Pinon Hills, California Climate Summary
Typical April Day

Normal High:    70.1°F (21.1°C)
Normal Low:    47.0°F (8.3°C)
Average:    58.4°F (14.6°C)

Hour    Temperature    Wind Speed    Humidity
12:00 AM    53°F (12°C)    3 mph    43%
1:00 AM    52°F (11°C)    3 mph    43%
2:00 AM    52°F (11°C)    3 mph    44%
3:00 AM    51°F (11°C)    3 mph    45%
4:00 AM    50°F (10°C)    3 mph    45%
5:00 AM    50°F (10°C)    3 mph    45%
6:00 AM    49°F (10°C)    3 mph    46%
7:00 AM    51°F (11°C)    3 mph    44%
8:00 AM    56°F (13°C)    3 mph    40%
9:00 AM    59°F (15°C)    4 mph    36%
10:00 AM    61°F (16°C)    5 mph    34%
11:00 AM    63°F (17°C)    5 mph    31%
12:00 PM    65°F (18°C)    5 mph    28%
1:00 PM    67°F (19°C)    5 mph    26%
2:00 PM    68°F (20°C)    5 mph    25%
3:00 PM    68°F (20°C)    6 mph    25%
4:00 PM    68°F (20°C)    6 mph    25%
5:00 PM    67°F (19°C)    5 mph    27%
6:00 PM    65°F (18°C)    6 mph    30%
7:00 PM    62°F (17°C)    4 mph    33%
8:00 PM    58°F (14°C)    4 mph    38%
9:00 PM    56°F (13°C)    4 mph    40%
10:00 PM    55°F (13°C)    3 mph    41%
11:00 PM    54°F (12°C)    3 mph    43%
 

The Pinon Hills, California weather pages are a service of WeatherCurrents.
Copyright ©Mon Jun 25 02:46:11 PDT 2018  WeatherCurrents. All rights reserved. - Submit questions and comments - Privacy Policy